sensor_id;sensor_type;location;lat;lon;timestamp;pressure;altitude;pressure_sealevel;temperature;humidity
70314;BME280;57725;47.526;18.986;2023-03-20T00:00:47;99867.63;;;9.28;90.96
70314;BME280;57725;47.526;18.986;2023-03-20T00:03:16;99866.78;;;9.28;91.17
70314;BME280;57725;47.526;18.986;2023-03-20T00:05:42;99861.59;;;9.26;90.84
70314;BME280;57725;47.526;18.986;2023-03-20T00:08:08;99860.69;;;9.27;90.78
70314;BME280;57725;47.526;18.986;2023-03-20T00:10:43;99858.94;;;9.28;90.66
70314;BME280;57725;47.526;18.986;2023-03-20T00:13:17;99850.31;;;9.26;90.86
70314;BME280;57725;47.526;18.986;2023-03-20T00:15:46;99854.63;;;9.27;91.12
70314;BME280;57725;47.526;18.986;2023-03-20T00:18:19;99857.25;;;9.27;90.81
70314;BME280;57725;47.526;18.986;2023-03-20T00:20:50;99854.63;;;9.27;90.86
70314;BME280;57725;47.526;18.986;2023-03-20T00:23:18;99857.25;;;9.27;90.86
70314;BME280;57725;47.526;18.986;2023-03-20T00:25:46;99849.59;;;9.22;91.16
70314;BME280;57725;47.526;18.986;2023-03-20T00:33:43;99859.00;;;9.26;90.99
70314;BME280;57725;47.526;18.986;2023-03-20T00:36:09;99848.63;;;9.25;91.18
70314;BME280;57725;47.526;18.986;2023-03-20T00:38:35;99859.00;;;9.26;91.13
70314;BME280;57725;47.526;18.986;2023-03-20T00:41:00;99862.50;;;9.25;91.03
70314;BME280;57725;47.526;18.986;2023-03-20T00:43:28;99849.59;;;9.22;90.94
70314;BME280;57725;47.526;18.986;2023-03-20T00:45:55;99866.88;;;9.25;90.96
70314;BME280;57725;47.526;18.986;2023-03-20T00:48:21;99861.66;;;9.25;91.25
70314;BME280;57725;47.526;18.986;2023-03-20T00:50:48;99860.81;;;9.24;90.98
70314;BME280;57725;47.526;18.986;2023-03-20T00:53:16;99852.97;;;9.24;91.22
70314;BME280;57725;47.526;18.986;2023-03-20T00:55:42;99854.75;;;9.24;91.00
70314;BME280;57725;47.526;18.986;2023-03-20T00:58:08;99849.47;;;9.25;91.10
70314;BME280;57725;47.526;18.986;2023-03-20T01:00:38;99852.97;;;9.24;90.95
70314;BME280;57725;47.526;18.986;2023-03-20T01:03:14;99854.75;;;9.24;91.30
70314;BME280;57725;47.526;18.986;2023-03-20T01:05:47;99848.66;;;9.23;91.19
70314;BME280;57725;47.526;18.986;2023-03-20T01:08:21;99848.66;;;9.23;91.14
70314;BME280;57725;47.526;18.986;2023-03-20T01:10:52;99858.28;;;9.23;91.20
70314;BME280;57725;47.526;18.986;2023-03-20T01:15:46;99847.84;;;9.23;91.33
70314;BME280;57725;47.526;18.986;2023-03-20T01:18:15;99849.59;;;9.22;90.88
70314;BME280;57725;47.526;18.986;2023-03-20T01:20:42;99852.25;;;9.21;90.86
70314;BME280;57725;47.526;18.986;2023-03-20T01:23:07;99850.47;;;9.23;91.33
70314;BME280;57725;47.526;18.986;2023-03-20T01:25:36;99847.00;;;9.22;91.25
70314;BME280;57725;47.526;18.986;2023-03-20T01:28:03;99848.75;;;9.22;91.18
70314;BME280;57725;47.526;18.986;2023-03-20T01:30:44;99840.94;;;9.22;91.04
70314;BME280;57725;47.526;18.986;2023-03-20T01:33:15;99841.78;;;9.22;91.19
70314;BME280;57725;47.526;18.986;2023-03-20T01:35:41;99834.84;;;9.21;91.17
70314;BME280;57725;47.526;18.986;2023-03-20T01:38:17;99836.63;;;9.21;91.27
70314;BME280;57725;47.526;18.986;2023-03-20T01:40:49;99837.47;;;9.21;91.38
70314;BME280;57725;47.526;18.986;2023-03-20T01:43:17;99834.84;;;9.21;91.35
70314;BME280;57725;47.526;18.986;2023-03-20T01:48:23;99827.09;;;9.20;91.24
70314;BME280;57725;47.526;18.986;2023-03-20T01:50:51;99824.47;;;9.20;91.26
70314;BME280;57725;47.526;18.986;2023-03-20T01:53:25;99830.59;;;9.19;91.29
70314;BME280;57725;47.526;18.986;2023-03-20T01:55:53;99828.84;;;9.19;91.50
70314;BME280;57725;47.526;18.986;2023-03-20T01:58:31;99831.44;;;9.19;91.44
70314;BME280;57725;47.526;18.986;2023-03-20T02:01:02;99825.50;;;9.16;91.17
70314;BME280;57725;47.526;18.986;2023-03-20T02:03:30;99821.19;;;9.15;91.46
70314;BME280;57725;47.526;18.986;2023-03-20T02:05:57;99828.91;;;9.18;91.36
70314;BME280;57725;47.526;18.986;2023-03-20T02:08:28;99822.84;;;9.17;91.59
70314;BME280;57725;47.526;18.986;2023-03-20T02:10:58;99823.69;;;9.18;91.41
70314;BME280;57725;47.526;18.986;2023-03-20T02:13:29;99827.13;;;9.18;91.66
70314;BME280;57725;47.526;18.986;2023-03-20T02:16:04;99828.03;;;9.17;91.34
70314;BME280;57725;47.526;18.986;2023-03-20T02:18:31;99824.59;;;9.17;91.15
70314;BME280;57725;47.526;18.986;2023-03-20T02:45:57;99800.31;;;9.15;91.71
70314;BME280;57725;47.526;18.986;2023-03-20T02:51:15;99800.38;;;9.13;91.29
70314;BME280;57725;47.526;18.986;2023-03-20T02:53:51;99798.66;;;9.12;91.61
70314;BME280;57725;47.526;18.986;2023-03-20T02:59:10;99798.66;;;9.12;91.47
70314;BME280;57725;47.526;18.986;2023-03-20T03:01:46;99799.53;;;9.13;91.41
70314;BME280;57725;47.526;18.986;2023-03-20T03:04:25;99801.28;;;9.12;91.62
70314;BME280;57725;47.526;18.986;2023-03-20T03:07:08;99798.66;;;9.12;91.37
70314;BME280;57725;47.526;18.986;2023-03-20T03:12:14;99801.34;;;9.11;91.46
70314;BME280;57725;47.526;18.986;2023-03-20T03:17:12;99802.31;;;9.08;91.55
70314;BME280;57725;47.526;18.986;2023-03-20T03:19:41;99797.06;;;9.10;91.57
70314;BME280;57725;47.526;18.986;2023-03-20T03:22:08;99807.47;;;9.10;91.42
70314;BME280;57725;47.526;18.986;2023-03-20T03:24:36;99804.88;;;9.10;91.65
70314;BME280;57725;47.526;18.986;2023-03-20T03:27:08;99804.88;;;9.10;91.58
70314;BME280;57725;47.526;18.986;2023-03-20T03:29:40;99798.81;;;9.09;91.90
70314;BME280;57725;47.526;18.986;2023-03-20T03:32:18;99805.72;;;9.10;91.59
70314;BME280;57725;47.526;18.986;2023-03-20T03:34:45;99805.78;;;9.08;91.82
70314;BME280;57725;47.526;18.986;2023-03-20T03:37:44;99808.44;;;9.07;91.52
70314;BME280;57725;47.526;18.986;2023-03-20T03:40:12;99807.53;;;9.08;91.60
70314;BME280;57725;47.526;18.986;2023-03-20T03:45:18;99812.75;;;9.08;91.41
70314;BME280;57725;47.526;18.986;2023-03-20T03:50:38;99829.31;;;9.07;91.60
70314;BME280;57725;47.526;18.986;2023-03-20T03:53:09;99823.22;;;9.06;91.39
70314;BME280;57725;47.526;18.986;2023-03-20T03:55:42;99830.22;;;9.06;91.55
70314;BME280;57725;47.526;18.986;2023-03-20T03:58:19;99831.13;;;9.05;91.86
70314;BME280;57725;47.526;18.986;2023-03-20T04:00:49;99835.41;;;9.06;91.50
70314;BME280;57725;47.526;18.986;2023-03-20T04:03:26;99838.03;;;9.06;91.69
70314;BME280;57725;47.526;18.986;2023-03-20T04:05:54;99845.00;;;9.05;91.49
70314;BME280;57725;47.526;18.986;2023-03-20T04:08:24;99833.72;;;9.05;91.69
70314;BME280;57725;47.526;18.986;2023-03-20T04:10:49;99831.16;;;9.03;91.61
70314;BME280;57725;47.526;18.986;2023-03-20T04:13:15;99838.09;;;9.04;91.48
70314;BME280;57725;47.526;18.986;2023-03-20T04:15:43;99837.22;;;9.04;91.55
70314;BME280;57725;47.526;18.986;2023-03-20T04:18:16;99839.88;;;9.02;92.05
70314;BME280;57725;47.526;18.986;2023-03-20T04:20:43;99833.97;;;8.99;91.71
70314;BME280;57725;47.526;18.986;2023-03-20T04:23:12;99841.59;;;9.03;91.67
70314;BME280;57725;47.526;18.986;2023-03-20T04:25:37;99850.28;;;9.04;91.67
70314;BME280;57725;47.526;18.986;2023-03-20T04:28:07;99853.78;;;9.03;91.54
70314;BME280;57725;47.526;18.986;2023-03-20T04:30:38;99858.16;;;9.02;91.59
70314;BME280;57725;47.526;18.986;2023-03-20T04:33:05;99855.53;;;9.02;91.76
70314;BME280;57725;47.526;18.986;2023-03-20T04:35:36;99852.13;;;9.00;91.50
70314;BME280;57725;47.526;18.986;2023-03-20T04:38:03;99848.84;;;8.95;91.76
70314;BME280;57725;47.526;18.986;2023-03-20T04:40:29;99859.03;;;9.01;91.71
70314;BME280;57725;47.526;18.986;2023-03-20T04:42:57;99857.28;;;9.02;91.77
70314;BME280;57725;47.526;18.986;2023-03-20T04:45:22;99860.81;;;9.01;91.66
70314;BME280;57725;47.526;18.986;2023-03-20T04:47:47;99853.88;;;9.00;91.63
70314;BME280;57725;47.526;18.986;2023-03-20T04:50:15;99843.78;;;8.91;91.47
70314;BME280;57725;47.526;18.986;2023-03-20T04:52:41;99855.69;;;8.99;91.87
70314;BME280;57725;47.526;18.986;2023-03-20T04:55:06;99855.69;;;8.99;91.78
70314;BME280;57725;47.526;18.986;2023-03-20T04:57:32;99854.81;;;8.99;91.50
70314;BME280;57725;47.526;18.986;2023-03-20T04:59:57;99853.97;;;8.98;91.85
70314;BME280;57725;47.526;18.986;2023-03-20T05:02:22;99848.81;;;8.97;92.15
70314;BME280;57725;47.526;18.986;2023-03-20T05:04:51;99855.78;;;8.96;91.60
70314;BME280;57725;47.526;18.986;2023-03-20T05:07:16;99851.41;;;8.97;91.88
70314;BME280;57725;47.526;18.986;2023-03-20T05:09:44;99855.72;;;8.98;92.04
70314;BME280;57725;47.526;18.986;2023-03-20T05:12:10;99855.81;;;8.95;91.89
70314;BME280;57725;47.526;18.986;2023-03-20T05:14:37;99863.59;;;8.96;91.54
70314;BME280;57725;47.526;18.986;2023-03-20T05:17:05;99870.56;;;8.96;91.87
70314;BME280;57725;47.526;18.986;2023-03-20T05:19:31;99863.66;;;8.95;91.92
70314;BME280;57725;47.526;18.986;2023-03-20T05:21:56;99871.41;;;8.96;92.06
70314;BME280;57725;47.526;18.986;2023-03-20T05:24:24;99867.16;;;8.94;91.67
70314;BME280;57725;47.526;18.986;2023-03-20T05:26:49;99873.19;;;8.96;91.86
70314;BME280;57725;47.526;18.986;2023-03-20T05:29:17;99881.00;;;8.96;91.99
70314;BME280;57725;47.526;18.986;2023-03-20T05:31:43;99877.59;;;8.94;91.75
70314;BME280;57725;47.526;18.986;2023-03-20T05:34:08;99881.91;;;8.95;92.05
70314;BME280;57725;47.526;18.986;2023-03-20T05:36:38;99872.38;;;8.94;91.74
70314;BME280;57725;47.526;18.986;2023-03-20T05:39:04;99879.34;;;8.93;91.94
70314;BME280;57725;47.526;18.986;2023-03-20T05:41:29;99877.59;;;8.94;92.00
70314;BME280;57725;47.526;18.986;2023-03-20T05:43:55;99881.09;;;8.93;91.85
70314;BME280;57725;47.526;18.986;2023-03-20T05:46:20;99876.00;;;8.90;91.72
70314;BME280;57725;47.526;18.986;2023-03-20T05:48:46;99876.78;;;8.92;91.80
70314;BME280;57725;47.526;18.986;2023-03-20T05:51:14;99876.78;;;8.92;91.74
70314;BME280;57725;47.526;18.986;2023-03-20T05:53:43;99883.75;;;8.91;92.15
70314;BME280;57725;47.526;18.986;2023-03-20T05:56:08;99878.53;;;8.91;91.84
70314;BME280;57725;47.526;18.986;2023-03-20T05:58:36;99884.63;;;8.92;91.97
70314;BME280;57725;47.526;18.986;2023-03-20T06:01:02;99891.56;;;8.91;92.21
70314;BME280;57725;47.526;18.986;2023-03-20T06:03:28;99895.94;;;8.91;91.89
70314;BME280;57725;47.526;18.986;2023-03-20T06:05:53;99897.69;;;8.90;91.89
70314;BME280;57725;47.526;18.986;2023-03-20T06:08:21;99901.22;;;8.89;92.41
70314;BME280;57725;47.526;18.986;2023-03-20T06:10:49;99901.16;;;8.91;92.13
70314;BME280;57725;47.526;18.986;2023-03-20T06:13:14;99904.66;;;8.90;92.11
70314;BME280;57725;47.526;18.986;2023-03-20T06:15:42;99903.75;;;8.91;92.07
70314;BME280;57725;47.526;18.986;2023-03-20T06:18:07;99896.94;;;8.88;92.07
70314;BME280;57725;47.526;18.986;2023-03-20T06:20:36;99902.91;;;8.90;92.35
70314;BME280;57725;47.526;18.986;2023-03-20T06:23:04;99892.53;;;8.89;92.21
70314;BME280;57725;47.526;18.986;2023-03-20T06:25:32;99898.59;;;8.89;92.39
70314;BME280;57725;47.526;18.986;2023-03-20T06:28:00;99898.59;;;8.89;92.24
70314;BME280;57725;47.526;18.986;2023-03-20T06:30:30;99904.75;;;8.88;92.26
70314;BME280;57725;47.526;18.986;2023-03-20T06:32:58;99899.59;;;8.87;92.51
70314;BME280;57725;47.526;18.986;2023-03-20T06:35:24;99902.91;;;8.90;92.16
70314;BME280;57725;47.526;18.986;2023-03-20T06:37:51;99903.91;;;8.88;92.44
70314;BME280;57725;47.526;18.986;2023-03-20T06:40:17;99908.13;;;8.90;92.24
70314;BME280;57725;47.526;18.986;2023-03-20T06:42:48;99908.25;;;8.87;92.63
70314;BME280;57725;47.526;18.986;2023-03-20T06:45:15;99903.81;;;8.89;92.44
70314;BME280;57725;47.526;18.986;2023-03-20T06:47:43;99904.75;;;8.88;92.82
70314;BME280;57725;47.526;18.986;2023-03-20T06:50:09;99906.41;;;8.89;92.54
70314;BME280;57725;47.526;18.986;2023-03-20T06:52:40;99902.97;;;8.89;92.69
70314;BME280;57725;47.526;18.986;2023-03-20T06:55:06;99903.81;;;8.89;92.95
70314;BME280;57725;47.526;18.986;2023-03-20T06:57:34;99911.63;;;8.89;92.93
70314;BME280;57725;47.526;18.986;2023-03-20T06:59:59;99904.66;;;8.90;92.57
70314;BME280;57725;47.526;18.986;2023-03-20T07:02:25;99898.59;;;8.89;92.69
70314;BME280;57725;47.526;18.986;2023-03-20T07:04:56;99902.06;;;8.90;92.63
70314;BME280;57725;47.526;18.986;2023-03-20T07:07:23;99914.19;;;8.91;92.85
70314;BME280;57725;47.526;18.986;2023-03-20T07:09:49;99903.75;;;8.91;92.62
70314;BME280;57725;47.526;18.986;2023-03-20T07:12:15;99902.06;;;8.90;92.83
70314;BME280;57725;47.526;18.986;2023-03-20T07:14:44;99901.28;;;8.88;93.08
70314;BME280;57725;47.526;18.986;2023-03-20T07:17:10;99902.91;;;8.90;92.76
70314;BME280;57725;47.526;18.986;2023-03-20T07:19:37;99906.38;;;8.91;92.80
70314;BME280;57725;47.526;18.986;2023-03-20T07:22:05;99903.75;;;8.91;92.98
70314;BME280;57725;47.526;18.986;2023-03-20T07:24:32;99909.81;;;8.91;93.11
70314;BME280;57725;47.526;18.986;2023-03-20T07:26:58;99908.06;;;8.92;93.16
70314;BME280;57725;47.526;18.986;2023-03-20T07:29:23;99915.03;;;8.91;93.20
70314;BME280;57725;47.526;18.986;2023-03-20T07:31:49;99899.41;;;8.91;93.01
70314;BME280;57725;47.526;18.986;2023-03-20T07:34:14;99899.41;;;8.91;93.16
70314;BME280;57725;47.526;18.986;2023-03-20T07:36:43;99894.25;;;8.90;92.96
70314;BME280;57725;47.526;18.986;2023-03-20T07:39:09;99901.97;;;8.93;93.15
70314;BME280;57725;47.526;18.986;2023-03-20T07:41:35;99905.47;;;8.92;93.31
70314;BME280;57725;47.526;18.986;2023-03-20T07:44:01;99899.44;;;8.90;93.24
70314;BME280;57725;47.526;18.986;2023-03-20T07:46:26;99908.06;;;8.92;93.02
70314;BME280;57725;47.526;18.986;2023-03-20T07:48:52;99908.06;;;8.92;93.24
70314;BME280;57725;47.526;18.986;2023-03-20T07:51:17;99903.72;;;8.92;93.09
70314;BME280;57725;47.526;18.986;2023-03-20T07:53:42;99901.97;;;8.93;93.37
70314;BME280;57725;47.526;18.986;2023-03-20T07:56:11;99903.72;;;8.92;93.08
70314;BME280;57725;47.526;18.986;2023-03-20T07:58:39;99905.41;;;8.93;93.10
70314;BME280;57725;47.526;18.986;2023-03-20T08:01:04;99911.50;;;8.94;93.16
70314;BME280;57725;47.526;18.986;2023-03-20T08:03:30;99914.09;;;8.94;93.14
70314;BME280;57725;47.526;18.986;2023-03-20T08:05:55;99905.41;;;8.93;93.15
70314;BME280;57725;47.526;18.986;2023-03-20T08:08:23;99910.69;;;8.92;93.20
70314;BME280;57725;47.526;18.986;2023-03-20T08:10:52;99907.16;;;8.93;93.60
70314;BME280;57725;47.526;18.986;2023-03-20T08:13:20;99912.28;;;8.96;93.19
70314;BME280;57725;47.526;18.986;2023-03-20T08:15:46;99912.28;;;8.96;93.20
70314;BME280;57725;47.526;18.986;2023-03-20T08:18:11;99917.50;;;8.96;93.14
70314;BME280;57725;47.526;18.986;2023-03-20T08:20:41;99914.03;;;8.95;93.34
70314;BME280;57725;47.526;18.986;2023-03-20T08:23:11;99917.44;;;8.97;93.35
70314;BME280;57725;47.526;18.986;2023-03-20T08:25:37;99907.13;;;8.94;93.09
70314;BME280;57725;47.526;18.986;2023-03-20T08:28:03;99913.13;;;8.96;93.08
70314;BME280;57725;47.526;18.986;2023-03-20T08:30:29;99911.38;;;8.97;93.43
70314;BME280;57725;47.526;18.986;2023-03-20T08:32:55;99907.88;;;8.98;93.15
70314;BME280;57725;47.526;18.986;2023-03-20T08:35:22;99908.78;;;8.97;93.16
70314;BME280;57725;47.526;18.986;2023-03-20T08:37:50;99910.47;;;8.98;93.35
70314;BME280;57725;47.526;18.986;2023-03-20T08:40:15;99906.13;;;8.98;92.80
70314;BME280;57725;47.526;18.986;2023-03-20T08:42:43;99914.91;;;8.96;93.30
70314;BME280;57725;47.526;18.986;2023-03-20T08:45:09;99918.25;;;8.99;93.35
70314;BME280;57725;47.526;18.986;2023-03-20T08:47:35;99921.69;;;9.00;93.05
70314;BME280;57725;47.526;18.986;2023-03-20T08:50:03;99919.06;;;9.00;93.33
70314;BME280;57725;47.526;18.986;2023-03-20T08:52:28;99919.06;;;9.00;93.24
70314;BME280;57725;47.526;18.986;2023-03-20T08:54:56;99914.72;;;9.00;93.36
70314;BME280;57725;47.526;18.986;2023-03-20T08:57:24;99924.25;;;9.01;93.10
70314;BME280;57725;47.526;18.986;2023-03-20T08:59:56;99919.03;;;9.01;93.11
70314;BME280;57725;47.526;18.986;2023-03-20T09:02:22;99922.44;;;9.03;93.23
70314;BME280;57725;47.526;18.986;2023-03-20T09:04:47;99931.13;;;9.04;93.36
70314;BME280;57725;47.526;18.986;2023-03-20T09:07:15;99928.50;;;9.04;93.08
70314;BME280;57725;47.526;18.986;2023-03-20T09:09:40;99925.03;;;9.03;93.24
70314;BME280;57725;47.526;18.986;2023-03-20T09:12:08;99930.22;;;9.05;92.92
70314;BME280;57725;47.526;18.986;2023-03-20T09:14:33;99934.53;;;9.06;93.18
70314;BME280;57725;47.526;18.986;2023-03-20T09:16:59;99931.00;;;9.07;92.94
70314;BME280;57725;47.526;18.986;2023-03-20T09:19:24;99931.91;;;9.06;92.90
70314;BME280;57725;47.526;18.986;2023-03-20T09:21:50;99923.19;;;9.07;92.92
70314;BME280;57725;47.526;18.986;2023-03-20T09:24:15;99924.09;;;9.06;92.95
70314;BME280;57725;47.526;18.986;2023-03-20T09:26:41;99924.03;;;9.07;92.92
70314;BME280;57725;47.526;18.986;2023-03-20T09:29:09;99922.22;;;9.10;93.03
70314;BME280;57725;47.526;18.986;2023-03-20T09:31:38;99920.47;;;9.10;93.02
70314;BME280;57725;47.526;18.986;2023-03-20T09:34:04;99929.16;;;9.11;93.25
70314;BME280;57725;47.526;18.986;2023-03-20T09:36:30;99920.41;;;9.12;93.20
70314;BME280;57725;47.526;18.986;2023-03-20T09:38:56;99923.84;;;9.12;92.92
70314;BME280;57725;47.526;18.986;2023-03-20T09:41:24;99921.19;;;9.14;92.79
70314;BME280;57725;47.526;18.986;2023-03-20T09:47:03;99917.69;;;9.15;92.68
70314;BME280;57725;47.526;18.986;2023-03-20T09:52:34;99919.38;;;9.16;93.02
70314;BME280;57725;47.526;18.986;2023-03-20T09:55:17;99915.88;;;9.17;93.18
70314;BME280;57725;47.526;18.986;2023-03-20T09:57:49;99921.03;;;9.18;92.69
70314;BME280;57725;47.526;18.986;2023-03-20T10:00:19;99923.59;;;9.20;93.00
70314;BME280;57725;47.526;18.986;2023-03-20T10:05:38;99927.88;;;9.22;92.74
70314;BME280;57725;47.526;18.986;2023-03-20T10:08:13;99917.44;;;9.22;92.89
70314;BME280;57725;47.526;18.986;2023-03-20T10:19:16;99924.16;;;9.28;92.98
70314;BME280;57725;47.526;18.986;2023-03-20T10:21:44;99933.69;;;9.29;92.79
70314;BME280;57725;47.526;18.986;2023-03-20T10:24:35;99937.16;;;9.29;92.63
70314;BME280;57725;47.526;18.986;2023-03-20T10:27:09;99926.66;;;9.31;92.76
70314;BME280;57725;47.526;18.986;2023-03-20T10:32:19;99916.28;;;9.29;92.47
70314;BME280;57725;47.526;18.986;2023-03-20T10:35:10;99916.19;;;9.32;92.59
70314;BME280;57725;47.526;18.986;2023-03-20T10:40:34;99916.91;;;9.36;92.94
70314;BME280;57725;47.526;18.986;2023-03-20T10:43:20;99903.78;;;9.37;92.49
70314;BME280;57725;47.526;18.986;2023-03-20T10:50:54;99890.69;;;9.39;92.29
70314;BME280;57725;47.526;18.986;2023-03-20T10:53:36;99899.28;;;9.42;92.62
70314;BME280;57725;47.526;18.986;2023-03-20T10:56:09;99894.16;;;9.39;92.66
70314;BME280;57725;47.526;18.986;2023-03-20T10:58:39;99899.16;;;9.46;92.76
70314;BME280;57725;47.526;18.986;2023-03-20T11:01:06;99884.41;;;9.44;92.70
70314;BME280;57725;47.526;18.986;2023-03-20T11:03:32;99886.03;;;9.47;92.57
70314;BME280;57725;47.526;18.986;2023-03-20T11:06:45;99879.06;;;9.48;92.35
70314;BME280;57725;47.526;18.986;2023-03-20T11:08:55;99884.16;;;9.51;92.58
70314;BME280;57725;47.526;18.986;2023-03-20T11:11:29;99882.41;;;9.51;92.35
70314;BME280;57725;47.526;18.986;2023-03-20T11:14:09;99871.06;;;9.52;92.22
70314;BME280;57725;47.526;18.986;2023-03-20T11:16:42;99871.91;;;9.53;92.45
70314;BME280;57725;47.526;18.986;2023-03-20T11:19:13;99876.16;;;9.55;92.52
70314;BME280;57725;47.526;18.986;2023-03-20T11:21:48;99876.13;;;9.57;92.32
70314;BME280;57725;47.526;18.986;2023-03-20T11:24:40;99869.97;;;9.58;92.25
70314;BME280;57725;47.526;18.986;2023-03-20T11:27:10;99875.13;;;9.59;92.17
70314;BME280;57725;47.526;18.986;2023-03-20T11:29:38;99867.28;;;9.59;92.55
70314;BME280;57725;47.526;18.986;2023-03-20T11:34:53;99861.91;;;9.64;92.22
70314;BME280;57725;47.526;18.986;2023-03-20T11:37:28;99853.22;;;9.63;92.47
70314;BME280;57725;47.526;18.986;2023-03-20T11:42:33;99862.66;;;9.67;92.17
70314;BME280;57725;47.526;18.986;2023-03-20T11:45:05;99862.66;;;9.67;92.15
70314;BME280;57725;47.526;18.986;2023-03-20T11:47:34;99865.19;;;9.69;92.36
70314;BME280;57725;47.526;18.986;2023-03-20T11:50:13;99858.19;;;9.69;92.11
70314;BME280;57725;47.526;18.986;2023-03-20T11:52:48;99863.34;;;9.71;92.43
70314;BME280;57725;47.526;18.986;2023-03-20T11:55:24;99858.06;;;9.72;92.13
70314;BME280;57725;47.526;18.986;2023-03-20T11:57:55;99854.56;;;9.73;92.37
70314;BME280;57725;47.526;18.986;2023-03-20T12:00:23;99854.50;;;9.75;92.61
70314;BME280;57725;47.526;18.986;2023-03-20T12:02:51;99850.97;;;9.76;92.44
70314;BME280;57725;47.526;18.986;2023-03-20T12:05:32;99850.13;;;9.75;92.36
70314;BME280;57725;47.526;18.986;2023-03-20T12:08:15;99849.16;;;9.78;91.98
70314;BME280;57725;47.526;18.986;2023-03-20T12:10:49;99852.56;;;9.80;92.49
70314;BME280;57725;47.526;18.986;2023-03-20T12:13:27;99845.59;;;9.80;91.99
70314;BME280;57725;47.526;18.986;2023-03-20T12:15:58;99848.97;;;9.82;91.90
70314;BME280;57725;47.526;18.986;2023-03-20T12:18:34;99841.06;;;9.84;91.99
70314;BME280;57725;47.526;18.986;2023-03-20T12:21:16;99842.72;;;9.87;92.26
70314;BME280;57725;47.526;18.986;2023-03-20T12:23:55;99846.19;;;9.87;92.27
70314;BME280;57725;47.526;18.986;2023-03-20T12:28:56;99843.44;;;9.90;91.85
70314;BME280;57725;47.526;18.986;2023-03-20T12:31:46;99842.59;;;9.90;92.12
70314;BME280;57725;47.526;18.986;2023-03-20T12:36:45;99839.84;;;9.93;91.99
70314;BME280;57725;47.526;18.986;2023-03-20T12:39:47;99837.16;;;9.94;92.11
70314;BME280;57725;47.526;18.986;2023-03-20T12:42:19;99834.50;;;9.96;92.18
70314;BME280;57725;47.526;18.986;2023-03-20T12:53:40;99827.66;;;10.35;83.21
70314;BME280;57725;47.526;18.986;2023-03-20T13:11:46;99816.09;;;10.21;89.41
70314;BME280;57725;47.526;18.986;2023-03-20T13:14:34;99797.03;;;10.17;89.73
70314;BME280;57725;47.526;18.986;2023-03-20T13:20:30;99803.88;;;10.21;90.31
70314;BME280;57725;47.526;18.986;2023-03-20T13:27:36;99801.22;;;10.23;91.07
70314;BME280;57725;47.526;18.986;2023-03-20T13:30:26;99795.13;;;10.22;90.70
70314;BME280;57725;47.526;18.986;2023-03-20T13:38:18;99785.41;;;10.26;91.03
70314;BME280;57725;47.526;18.986;2023-03-20T13:40:49;99785.41;;;10.26;91.50
70314;BME280;57725;47.526;18.986;2023-03-20T13:43:39;99787.09;;;10.27;91.25
70314;BME280;57725;47.526;18.986;2023-03-20T13:46:21;99786.16;;;10.28;91.37
70314;BME280;57725;47.526;18.986;2023-03-20T13:48:52;99781.78;;;10.28;91.28
70314;BME280;57725;47.526;18.986;2023-03-20T13:57:13;99774.69;;;10.32;91.57
70314;BME280;57725;47.526;18.986;2023-03-20T14:05:16;99774.56;;;10.35;91.32
70314;BME280;57725;47.526;18.986;2023-03-20T14:07:46;99779.78;;;10.35;91.48
70314;BME280;57725;47.526;18.986;2023-03-20T14:13:01;99775.41;;;10.35;91.34
70314;BME280;57725;47.526;18.986;2023-03-20T14:15:33;99780.50;;;10.38;91.39
70314;BME280;57725;47.526;18.986;2023-03-20T14:18:28;99771.72;;;10.39;91.29
70314;BME280;57725;47.526;18.986;2023-03-20T14:21:00;99769.97;;;10.40;91.44
70314;BME280;57725;47.526;18.986;2023-03-20T14:23:39;99769.03;;;10.41;91.80
70314;BME280;57725;47.526;18.986;2023-03-20T14:26:28;99777.66;;;10.43;91.76
70314;BME280;57725;47.526;18.986;2023-03-20T14:31:33;99764.53;;;10.44;91.41
70314;BME280;57725;47.526;18.986;2023-03-20T14:39:21;99765.34;;;10.46;91.58
70314;BME280;57725;47.526;18.986;2023-03-20T14:50:28;99762.50;;;10.51;91.55
70314;BME280;57725;47.526;18.986;2023-03-20T14:53:11;99763.28;;;10.53;91.59
70314;BME280;57725;47.526;18.986;2023-03-20T15:07:21;99750.09;;;10.56;91.40
70314;BME280;57725;47.526;18.986;2023-03-20T15:09:51;99749.16;;;10.57;91.70
70314;BME280;57725;47.526;18.986;2023-03-20T15:12:27;99748.25;;;10.58;91.67
70314;BME280;57725;47.526;18.986;2023-03-20T15:15:00;99749.94;;;10.59;91.74
70314;BME280;57725;47.526;18.986;2023-03-20T15:17:46;99743.81;;;10.60;91.37
70314;BME280;57725;47.526;18.986;2023-03-20T15:25:16;99748.88;;;10.63;91.37
70314;BME280;57725;47.526;18.986;2023-03-20T15:27:45;99746.25;;;10.63;91.34
70314;BME280;57725;47.526;18.986;2023-03-20T15:30:19;99748.81;;;10.65;91.52
70314;BME280;57725;47.526;18.986;2023-03-20T15:32:52;99747.06;;;10.65;91.43
70314;BME280;57725;47.526;18.986;2023-03-20T15:35:20;99746.13;;;10.66;91.62
70314;BME280;57725;47.526;18.986;2023-03-20T15:37:48;99745.28;;;10.66;91.47
70314;BME280;57725;47.526;18.986;2023-03-20T15:40:27;99754.75;;;10.68;91.65
70314;BME280;57725;47.526;18.986;2023-03-20T15:45:40;99745.16;;;10.69;91.33
70314;BME280;57725;47.526;18.986;2023-03-20T15:48:11;99747.72;;;10.70;91.41
70314;BME280;57725;47.526;18.986;2023-03-20T15:50:39;99748.63;;;10.69;91.34
70314;BME280;57725;47.526;18.986;2023-03-20T15:53:07;99745.16;;;10.69;91.20
70314;BME280;57725;47.526;18.986;2023-03-20T15:55:38;99746.78;;;10.71;91.09
70314;BME280;57725;47.526;18.986;2023-03-20T15:58:03;99742.31;;;10.73;91.34
70314;BME280;57725;47.526;18.986;2023-03-20T16:00:38;99740.53;;;10.74;91.28
70314;BME280;57725;47.526;18.986;2023-03-20T16:03:09;99743.16;;;10.74;91.43
70314;BME280;57725;47.526;18.986;2023-03-20T16:05:36;99741.41;;;10.74;91.25
70314;BME280;57725;47.526;18.986;2023-03-20T16:08:13;99751.84;;;10.74;91.23
70314;BME280;57725;47.526;18.986;2023-03-20T16:10:41;99750.03;;;10.76;91.30